Accueil
METAR-TAF:

METAR-TAF

Aéroports :

Base aérienne Volkel-Uden

Uden, Pays-Bas

latitude: 51-39N, longitude: 005-42E, altitude: 22 m

Observation

Le bulletin a été fait il y a 30 minutes, à 02:55 UTC
Vent 3 kt de ouest/sud-ouest
Température 13°C
Humidité 94%
Pression 1013 hPa
Visibilité 10 km ou plus
Quelques nuages à une hauteur de 1500 ft, Cumulonimbus.
Nuages épars à une hauteur de 5800 ft
Nuages fragmentés à une hauteur de 7500 ft
forte bruine

METAR: EHVK 020255Z AUTO 24003KT 9999 +DZ FEW015CB SCT058 BKN075 13/12 Q1013 BLU

Heure: 05:25 (03:25 UTC)

Prévision

Le bulletin a été fait il y a 2 heures et 58 minutes, à 00:27 UTC
Prévision valable du 02 à 01 UTC au 02 à 13 UTC
Vent 3 kt de ouest/nord-ouest
Visibilité 10 km ou plus
pas de nuages en-dessous de 1500 mètres et pas de cumulonimbus.
Probabilité 30%
du 02 à 02 UTC au 02 à 06 UTC
Visibilité: 4000 m
brume

TAF: EHVK 020027Z 0201/0213 29003KT CAVOK PROB30 0202/0206 4000 BR

Observations et prévisions météorologiques de plus de 4000 aéroports (messages METAR et TAF).

Les stations disponibles sont représentées par des disques jaunes et rouges sur la carte.

Passer la souris dessus pour voir le nom de la station.

Cliquer dessus pour voir les observations et prévisions météorologiques.

Pour changer de carte: cliquez sur les boutons verts avec une croix noire pour zoomer, sur le bouton vert avec un tiret pour effectuer un zoom arrière, ou sur les flèches vertes pour les cartes adjacentes.


METAR-TAF: